sensor_id;sensor_type;location;lat;lon;timestamp;pressure;altitude;pressure_sealevel;temperature;humidity
36222;BME280;22266;52.340;4.962;2023-05-31T00:02:20;102732.44;;;13.40;72.70
36222;BME280;22266;52.340;4.962;2023-05-31T00:04:46;102740.03;;;13.36;73.18
36222;BME280;22266;52.340;4.962;2023-05-31T00:07:13;102737.84;;;13.40;73.32
36222;BME280;22266;52.340;4.962;2023-05-31T00:09:39;102734.50;;;13.38;72.97
36222;BME280;22266;52.340;4.962;2023-05-31T00:12:06;102735.84;;;13.42;73.58
36222;BME280;22266;52.340;4.962;2023-05-31T00:14:33;102739.56;;;13.49;73.22
36222;BME280;22266;52.340;4.962;2023-05-31T00:16:59;102733.81;;;13.52;73.13
36222;BME280;22266;52.340;4.962;2023-05-31T00:19:29;102736.53;;;13.52;72.73
36222;BME280;22266;52.340;4.962;2023-05-31T00:21:55;102732.47;;;13.48;73.28
36222;BME280;22266;52.340;4.962;2023-05-31T00:24:22;102726.22;;;13.47;73.35
36222;BME280;22266;52.340;4.962;2023-05-31T00:26:48;102730.78;;;13.47;73.56
36222;BME280;22266;52.340;4.962;2023-05-31T00:29:15;102728.72;;;13.41;73.35
36222;BME280;22266;52.340;4.962;2023-05-31T00:31:42;102725.84;;;13.34;73.97
36222;BME280;22266;52.340;4.962;2023-05-31T00:34:08;102725.03;;;13.33;74.01
36222;BME280;22266;52.340;4.962;2023-05-31T00:36:37;102718.25;;;13.29;73.91
36222;BME280;22266;52.340;4.962;2023-05-31T00:39:03;102719.59;;;13.25;74.43
36222;BME280;22266;52.340;4.962;2023-05-31T00:41:30;102726.34;;;13.29;74.18
36222;BME280;22266;52.340;4.962;2023-05-31T00:43:56;102727.53;;;13.27;74.42
36222;BME280;22266;52.340;4.962;2023-05-31T00:48:52;102730.06;;;13.28;74.15
36222;BME280;22266;52.340;4.962;2023-05-31T00:51:19;102729.56;;;13.25;74.14
36222;BME280;22266;52.340;4.962;2023-05-31T00:53:46;102731.78;;;13.29;74.68
36222;BME280;22266;52.340;4.962;2023-05-31T00:56:15;102733.63;;;13.29;74.16
36222;BME280;22266;52.340;4.962;2023-05-31T00:58:42;102740.88;;;13.28;74.33
36222;BME280;22266;52.340;4.962;2023-05-31T01:01:12;102738.13;;;13.20;74.33
36222;BME280;22266;52.340;4.962;2023-05-31T01:03:40;102743.34;;;13.14;74.61
36222;BME280;22266;52.340;4.962;2023-05-31T01:06:07;102746.41;;;13.19;74.85
36222;BME280;22266;52.340;4.962;2023-05-31T01:08:37;102745.25;;;13.21;74.82
36222;BME280;22266;52.340;4.962;2023-05-31T01:14:10;102741.22;;;13.25;74.28
36222;BME280;22266;52.340;4.962;2023-05-31T01:16:39;102745.75;;;13.17;74.44
36222;BME280;22266;52.340;4.962;2023-05-31T01:19:13;102742.13;;;13.08;74.88
36222;BME280;22266;52.340;4.962;2023-05-31T01:21:55;102739.44;;;13.08;75.37
36222;BME280;22266;52.340;4.962;2023-05-31T01:24:51;102741.81;;;13.11;74.90
36222;BME280;22266;52.340;4.962;2023-05-31T01:27:20;102731.50;;;13.06;74.68
36222;BME280;22266;52.340;4.962;2023-05-31T01:29:48;102734.53;;;13.03;75.26
36222;BME280;22266;52.340;4.962;2023-05-31T01:32:19;102744.19;;;13.06;74.92
36222;BME280;22266;52.340;4.962;2023-05-31T01:34:47;102739.78;;;13.05;75.38
36222;BME280;22266;52.340;4.962;2023-05-31T01:37:15;102741.28;;;13.07;75.30
36222;BME280;22266;52.340;4.962;2023-05-31T01:39:42;102739.13;;;13.11;75.34
36222;BME280;22266;52.340;4.962;2023-05-31T01:42:09;102737.28;;;13.20;75.10
36222;BME280;22266;52.340;4.962;2023-05-31T01:44:38;102740.38;;;13.25;74.79
36222;BME280;22266;52.340;4.962;2023-05-31T01:47:07;102738.66;;;13.24;74.52
36222;BME280;22266;52.340;4.962;2023-05-31T01:49:36;102736.97;;;13.23;74.61
36222;BME280;22266;52.340;4.962;2023-05-31T01:52:06;102734.09;;;13.24;74.44
36222;BME280;22266;52.340;4.962;2023-05-31T01:54:32;102734.75;;;13.18;74.18
36222;BME280;22266;52.340;4.962;2023-05-31T01:57:03;102737.25;;;13.11;73.72
36222;BME280;22266;52.340;4.962;2023-05-31T01:59:32;102743.81;;;13.01;74.09
36222;BME280;22266;52.340;4.962;2023-05-31T02:02:01;102740.03;;;12.85;74.23
36222;BME280;22266;52.340;4.962;2023-05-31T02:04:28;102734.28;;;12.80;75.05
36222;BME280;22266;52.340;4.962;2023-05-31T02:06:55;102732.59;;;12.87;75.11
36222;BME280;22266;52.340;4.962;2023-05-31T02:09:21;102733.13;;;12.91;74.65
36222;BME280;22266;52.340;4.962;2023-05-31T02:11:53;102725.72;;;12.93;74.54
36222;BME280;22266;52.340;4.962;2023-05-31T02:14:20;102718.28;;;12.95;74.73
36222;BME280;22266;52.340;4.962;2023-05-31T02:16:47;102725.53;;;12.95;74.48
36222;BME280;22266;52.340;4.962;2023-05-31T02:19:13;102717.22;;;12.88;74.08
36222;BME280;22266;52.340;4.962;2023-05-31T02:21:40;102712.69;;;12.89;74.52
36222;BME280;22266;52.340;4.962;2023-05-31T02:24:08;102716.38;;;12.87;73.99
36222;BME280;22266;52.340;4.962;2023-05-31T02:26:34;102719.78;;;12.90;74.14
36222;BME280;22266;52.340;4.962;2023-05-31T02:29:01;102724.69;;;12.86;73.32
36222;BME280;22266;52.340;4.962;2023-05-31T02:31:27;102720.06;;;12.78;73.86
36222;BME280;22266;52.340;4.962;2023-05-31T02:33:54;102718.06;;;12.80;74.27
36222;BME280;22266;52.340;4.962;2023-05-31T02:36:21;102726.84;;;12.82;73.91
36222;BME280;22266;52.340;4.962;2023-05-31T02:38:48;102723.97;;;12.84;73.81
36222;BME280;22266;52.340;4.962;2023-05-31T02:41:14;102727.19;;;12.87;73.70
36222;BME280;22266;52.340;4.962;2023-05-31T02:43:41;102723.03;;;12.93;73.67
36222;BME280;22266;52.340;4.962;2023-05-31T02:46:07;102713.19;;;12.92;73.34
36222;BME280;22266;52.340;4.962;2023-05-31T02:48:34;102720.81;;;12.89;73.39
36222;BME280;22266;52.340;4.962;2023-05-31T02:51:00;102720.47;;;12.92;73.27
36222;BME280;22266;52.340;4.962;2023-05-31T02:53:47;102710.34;;;12.94;73.17
36222;BME280;22266;52.340;4.962;2023-05-31T02:56:19;102714.06;;;12.93;73.07
36222;BME280;22266;52.340;4.962;2023-05-31T02:59:09;102715.06;;;12.92;73.22
36222;BME280;22266;52.340;4.962;2023-05-31T03:01:56;102717.59;;;12.85;73.18
36222;BME280;22266;52.340;4.962;2023-05-31T03:04:35;102716.88;;;12.83;73.76
36222;BME280;22266;52.340;4.962;2023-05-31T03:07:03;102723.31;;;12.82;73.32
36222;BME280;22266;52.340;4.962;2023-05-31T03:09:30;102716.22;;;12.81;73.53
36222;BME280;22266;52.340;4.962;2023-05-31T03:11:58;102723.63;;;12.79;73.98
36222;BME280;22266;52.340;4.962;2023-05-31T03:14:25;102716.53;;;12.78;73.23
36222;BME280;22266;52.340;4.962;2023-05-31T03:16:53;102723.44;;;12.72;74.13
36222;BME280;22266;52.340;4.962;2023-05-31T03:19:20;102728.16;;;12.70;73.90
36222;BME280;22266;52.340;4.962;2023-05-31T03:21:50;102722.41;;;12.65;74.38
36222;BME280;22266;52.340;4.962;2023-05-31T03:24:17;102723.91;;;12.68;74.20
36222;BME280;22266;52.340;4.962;2023-05-31T03:26:46;102728.16;;;12.70;74.78
36222;BME280;22266;52.340;4.962;2023-05-31T03:29:13;102719.56;;;12.75;74.70
36222;BME280;22266;52.340;4.962;2023-05-31T03:31:40;102719.91;;;12.80;74.87
36222;BME280;22266;52.340;4.962;2023-05-31T03:34:08;102725.53;;;12.86;74.62
36222;BME280;22266;52.340;4.962;2023-05-31T03:36:36;102725.53;;;12.86;74.84
36222;BME280;22266;52.340;4.962;2023-05-31T03:39:20;102727.91;;;12.90;74.93
36222;BME280;22266;52.340;4.962;2023-05-31T03:41:47;102732.47;;;12.89;75.18
36222;BME280;22266;52.340;4.962;2023-05-31T03:44:13;102731.63;;;12.89;74.82
36222;BME280;22266;52.340;4.962;2023-05-31T03:46:40;102734.78;;;12.84;75.17
36222;BME280;22266;52.340;4.962;2023-05-31T03:49:07;102726.84;;;12.82;75.28
36222;BME280;22266;52.340;4.962;2023-05-31T03:51:34;102730.06;;;12.78;75.64
36222;BME280;22266;52.340;4.962;2023-05-31T03:54:01;102729.53;;;12.74;75.68
36222;BME280;22266;52.340;4.962;2023-05-31T03:56:28;102733.91;;;12.75;76.16
36222;BME280;22266;52.340;4.962;2023-05-31T03:58:54;102735.13;;;12.81;75.81
36222;BME280;22266;52.340;4.962;2023-05-31T04:01:21;102737.00;;;12.80;75.89
36222;BME280;22266;52.340;4.962;2023-05-31T04:03:48;102736.50;;;12.85;75.83
36222;BME280;22266;52.340;4.962;2023-05-31T04:06:15;102742.75;;;12.85;75.49
36222;BME280;22266;52.340;4.962;2023-05-31T04:08:42;102742.91;;;12.84;75.51
36222;BME280;22266;52.340;4.962;2023-05-31T04:11:09;102735.81;;;12.83;75.69
36222;BME280;22266;52.340;4.962;2023-05-31T04:13:36;102740.88;;;12.86;75.61
36222;BME280;22266;52.340;4.962;2023-05-31T04:16:02;102734.78;;;12.84;75.48
36222;BME280;22266;52.340;4.962;2023-05-31T04:18:29;102737.50;;;12.84;75.89
36222;BME280;22266;52.340;4.962;2023-05-31T04:20:56;102730.75;;;12.88;76.19
36222;BME280;22266;52.340;4.962;2023-05-31T04:23:23;102739.91;;;12.95;75.88
36222;BME280;22266;52.340;4.962;2023-05-31T04:25:50;102737.06;;;12.97;76.07
36222;BME280;22266;52.340;4.962;2023-05-31T04:28:17;102738.56;;;12.99;75.96
36222;BME280;22266;52.340;4.962;2023-05-31T04:30:45;102740.44;;;12.99;75.44
36222;BME280;22266;52.340;4.962;2023-05-31T04:33:12;102744.47;;;12.95;75.31
36222;BME280;22266;52.340;4.962;2023-05-31T04:35:39;102746.50;;;12.93;75.44
36222;BME280;22266;52.340;4.962;2023-05-31T04:38:07;102750.19;;;12.92;75.83
36222;BME280;22266;52.340;4.962;2023-05-31T04:40:34;102738.84;;;12.88;75.72
36222;BME280;22266;52.340;4.962;2023-05-31T04:43:01;102743.41;;;12.87;75.69
36222;BME280;22266;52.340;4.962;2023-05-31T04:45:29;102740.88;;;12.86;76.07
36222;BME280;22266;52.340;4.962;2023-05-31T04:48:00;102737.16;;;12.87;76.18
36222;BME280;22266;52.340;4.962;2023-05-31T04:50:27;102741.41;;;12.90;76.33
36222;BME280;22266;52.340;4.962;2023-05-31T04:52:56;102741.56;;;12.88;76.08
36222;BME280;22266;52.340;4.962;2023-05-31T04:55:24;102747.66;;;12.90;76.11
36222;BME280;22266;52.340;4.962;2023-05-31T04:57:51;102745.13;;;12.89;76.31
36222;BME280;22266;52.340;4.962;2023-05-31T05:00:19;102743.31;;;12.97;76.04
36222;BME280;22266;52.340;4.962;2023-05-31T05:03:00;102736.88;;;12.98;75.29
36222;BME280;22266;52.340;4.962;2023-05-31T05:05:27;102743.13;;;12.99;75.46
36222;BME280;22266;52.340;4.962;2023-05-31T05:07:55;102736.88;;;12.98;75.54
36222;BME280;22266;52.340;4.962;2023-05-31T05:10:23;102743.81;;;13.01;75.63
36222;BME280;22266;52.340;4.962;2023-05-31T05:12:50;102743.47;;;13.04;75.73
36222;BME280;22266;52.340;4.962;2023-05-31T05:15:17;102747.72;;;13.06;76.00
36222;BME280;22266;52.340;4.962;2023-05-31T05:17:44;102745.53;;;13.10;75.83
36222;BME280;22266;52.340;4.962;2023-05-31T05:20:13;102750.78;;;13.11;74.95
36222;BME280;22266;52.340;4.962;2023-05-31T05:22:49;102748.75;;;13.14;75.30
36222;BME280;22266;52.340;4.962;2023-05-31T05:25:18;102751.16;;;13.17;75.44
36222;BME280;22266;52.340;4.962;2023-05-31T05:27:44;102748.78;;;13.22;75.75
36222;BME280;22266;52.340;4.962;2023-05-31T05:30:12;102746.16;;;13.38;75.95
36222;BME280;22266;52.340;4.962;2023-05-31T05:32:39;102747.03;;;13.55;75.51
36222;BME280;22266;52.340;4.962;2023-05-31T05:35:06;102750.44;;;13.73;74.85
36222;BME280;22266;52.340;4.962;2023-05-31T05:37:32;102751.94;;;13.84;74.31
36222;BME280;22266;52.340;4.962;2023-05-31T05:39:59;102754.81;;;13.99;74.85
36222;BME280;22266;52.340;4.962;2023-05-31T05:42:26;102751.91;;;14.25;73.96
36222;BME280;22266;52.340;4.962;2023-05-31T05:44:54;102755.09;;;14.37;72.41
36222;BME280;22266;52.340;4.962;2023-05-31T05:47:20;102760.84;;;14.42;72.21
36222;BME280;22266;52.340;4.962;2023-05-31T05:49:50;102760.53;;;14.37;71.48
36222;BME280;22266;52.340;4.962;2023-05-31T05:52:17;102762.59;;;14.26;72.76
36222;BME280;22266;52.340;4.962;2023-05-31T05:54:44;102761.41;;;14.21;72.14
36222;BME280;22266;52.340;4.962;2023-05-31T05:57:11;102759.03;;;14.09;72.72
36222;BME280;22266;52.340;4.962;2023-05-31T05:59:41;102761.41;;;14.04;73.18
36222;BME280;22266;52.340;4.962;2023-05-31T06:02:19;102753.97;;;14.06;73.31
36222;BME280;22266;52.340;4.962;2023-05-31T06:04:47;102755.31;;;14.10;73.03
36222;BME280;22266;52.340;4.962;2023-05-31T06:07:16;102748.03;;;14.11;73.28
36222;BME280;22266;52.340;4.962;2023-05-31T06:09:43;102754.63;;;14.17;73.33
36222;BME280;22266;52.340;4.962;2023-05-31T06:12:09;102760.72;;;14.27;73.17
36222;BME280;22266;52.340;4.962;2023-05-31T06:14:39;102757.50;;;14.31;72.77
36222;BME280;22266;52.340;4.962;2023-05-31T06:17:06;102753.09;;;14.30;72.09
36222;BME280;22266;52.340;4.962;2023-05-31T06:19:32;102761.72;;;14.18;72.42
36222;BME280;22266;52.340;4.962;2023-05-31T06:21:59;102755.66;;;14.07;73.50
36222;BME280;22266;52.340;4.962;2023-05-31T06:24:27;102749.41;;;13.99;73.54
36222;BME280;22266;52.340;4.962;2023-05-31T06:26:53;102757.03;;;13.95;73.87
36222;BME280;22266;52.340;4.962;2023-05-31T06:29:25;102751.09;;;14.00;74.04
36222;BME280;22266;52.340;4.962;2023-05-31T06:32:03;102757.34;;;14.08;73.50
36222;BME280;22266;52.340;4.962;2023-05-31T06:34:35;102752.78;;;14.01;72.71
36222;BME280;22266;52.340;4.962;2023-05-31T06:37:02;102750.06;;;13.93;73.52
36222;BME280;22266;52.340;4.962;2023-05-31T06:39:29;102749.41;;;13.99;73.94
36222;BME280;22266;52.340;4.962;2023-05-31T06:41:56;102756.69;;;14.06;74.04
36222;BME280;22266;52.340;4.962;2023-05-31T06:44:43;102754.31;;;14.12;73.70
36222;BME280;22266;52.340;4.962;2023-05-31T06:47:34;102744.81;;;14.16;72.79
36222;BME280;22266;52.340;4.962;2023-05-31T06:50:24;102750.56;;;14.13;72.94
36222;BME280;22266;52.340;4.962;2023-05-31T06:53:09;102761.25;;;14.06;73.09
36222;BME280;22266;52.340;4.962;2023-05-31T06:55:45;102746.84;;;13.97;73.47
36222;BME280;22266;52.340;4.962;2023-05-31T06:58:16;102756.50;;;13.92;74.17
36222;BME280;22266;52.340;4.962;2023-05-31T07:00:45;102746.19;;;13.87;74.07
36222;BME280;22266;52.340;4.962;2023-05-31T07:03:22;102762.94;;;13.99;73.98
36222;BME280;22266;52.340;4.962;2023-05-31T07:05:49;102756.31;;;14.01;72.95
36222;BME280;22266;52.340;4.962;2023-05-31T07:08:16;102757.53;;;14.07;73.56
36222;BME280;22266;52.340;4.962;2023-05-31T07:11:05;102759.19;;;14.16;73.93
36222;BME280;22266;52.340;4.962;2023-05-31T07:13:31;102764.28;;;14.19;73.45
36222;BME280;22266;52.340;4.962;2023-05-31T07:15:58;102766.97;;;14.35;72.95
36222;BME280;22266;52.340;4.962;2023-05-31T07:18:25;102768.13;;;14.41;73.17
36222;BME280;22266;52.340;4.962;2023-05-31T07:20:55;102763.72;;;14.40;72.24
36222;BME280;22266;52.340;4.962;2023-05-31T07:23:23;102759.34;;;14.39;72.62
36222;BME280;22266;52.340;4.962;2023-05-31T07:25:53;102758.47;;;14.47;72.81
36222;BME280;22266;52.340;4.962;2023-05-31T07:28:19;102754.25;;;14.44;72.24
36222;BME280;22266;52.340;4.962;2023-05-31T07:30:46;102755.63;;;14.32;71.88
36222;BME280;22266;52.340;4.962;2023-05-31T07:33:12;102758.66;;;14.29;72.48
36222;BME280;22266;52.340;4.962;2023-05-31T07:35:52;102760.19;;;14.40;72.62
36222;BME280;22266;52.340;4.962;2023-05-31T07:38:24;102757.47;;;14.48;71.92
36222;BME280;22266;52.340;4.962;2023-05-31T07:40:50;102758.13;;;14.58;71.84
36222;BME280;22266;52.340;4.962;2023-05-31T07:43:17;102760.16;;;14.64;71.60
36222;BME280;22266;52.340;4.962;2023-05-31T07:45:50;102759.44;;;14.70;71.75
36222;BME280;22266;52.340;4.962;2023-05-31T07:48:17;102764.53;;;14.73;71.53
36222;BME280;22266;52.340;4.962;2023-05-31T07:50:44;102756.34;;;14.81;71.30
36222;BME280;22266;52.340;4.962;2023-05-31T07:53:11;102752.78;;;14.89;71.04
36222;BME280;22266;52.340;4.962;2023-05-31T07:55:38;102757.34;;;14.89;70.79
36222;BME280;22266;52.340;4.962;2023-05-31T07:58:05;102752.16;;;14.79;70.22
36222;BME280;22266;52.340;4.962;2023-05-31T08:00:32;102756.53;;;14.80;70.85
36222;BME280;22266;52.340;4.962;2023-05-31T08:03:01;102752.28;;;14.86;70.82
36222;BME280;22266;52.340;4.962;2023-05-31T08:05:27;102758.72;;;14.84;70.47
36222;BME280;22266;52.340;4.962;2023-05-31T08:07:54;102752.47;;;14.84;70.64
36222;BME280;22266;52.340;4.962;2023-05-31T08:10:20;102753.34;;;14.76;70.85
36222;BME280;22266;52.340;4.962;2023-05-31T08:12:47;102746.88;;;14.77;70.21
36222;BME280;22266;52.340;4.962;2023-05-31T08:15:13;102751.13;;;14.80;71.02
36222;BME280;22266;52.340;4.962;2023-05-31T08:17:40;102752.41;;;14.92;70.89
36222;BME280;22266;52.340;4.962;2023-05-31T08:20:09;102744.59;;;14.97;70.43
36222;BME280;22266;52.340;4.962;2023-05-31T08:22:36;102742.38;;;15.01;70.57
36222;BME280;22266;52.340;4.962;2023-05-31T08:25:03;102739.97;;;15.06;70.66
36222;BME280;22266;52.340;4.962;2023-05-31T08:27:30;102739.63;;;15.09;70.57
36222;BME280;22266;52.340;4.962;2023-05-31T08:29:56;102738.25;;;15.13;69.39
36222;BME280;22266;52.340;4.962;2023-05-31T08:32:23;102736.22;;;15.15;70.16
36222;BME280;22266;52.340;4.962;2023-05-31T08:34:49;102737.16;;;15.22;70.21
36222;BME280;22266;52.340;4.962;2023-05-31T08:37:15;102726.41;;;15.37;69.51
36222;BME280;22266;52.340;4.962;2023-05-31T08:39:42;102728.75;;;15.40;69.74
36222;BME280;22266;52.340;4.962;2023-05-31T08:42:24;102737.38;;;15.44;69.31
36222;BME280;22266;52.340;4.962;2023-05-31T08:44:51;102730.09;;;15.44;69.34
36222;BME280;22266;52.340;4.962;2023-05-31T08:47:23;102730.44;;;15.41;69.29
36222;BME280;22266;52.340;4.962;2023-05-31T08:49:52;102731.16;;;15.35;69.63
36222;BME280;22266;52.340;4.962;2023-05-31T08:52:21;102735.25;;;15.31;69.93
36222;BME280;22266;52.340;4.962;2023-05-31T08:54:48;102727.59;;;15.34;70.54
36222;BME280;22266;52.340;4.962;2023-05-31T08:57:17;102717.91;;;15.40;69.63
36222;BME280;22266;52.340;4.962;2023-05-31T08:59:44;102727.66;;;15.49;70.02
36222;BME280;22266;52.340;4.962;2023-05-31T09:02:12;102728.22;;;15.45;69.30
36222;BME280;22266;52.340;4.962;2023-05-31T09:04:40;102724.13;;;15.49;70.05
36222;BME280;22266;52.340;4.962;2023-05-31T09:07:07;102726.09;;;15.55;70.41
36222;BME280;22266;52.340;4.962;2023-05-31T09:09:33;102732.16;;;15.65;70.71
36222;BME280;22266;52.340;4.962;2023-05-31T09:12:00;102728.06;;;15.69;69.91
36222;BME280;22266;52.340;4.962;2023-05-31T09:14:27;102735.53;;;15.67;69.77
36222;BME280;22266;52.340;4.962;2023-05-31T09:16:54;102731.06;;;15.74;69.95
36222;BME280;22266;52.340;4.962;2023-05-31T09:19:20;102729.03;;;15.76;69.82
36222;BME280;22266;52.340;4.962;2023-05-31T09:21:47;102723.22;;;15.79;69.18
36222;BME280;22266;52.340;4.962;2023-05-31T09:24:14;102727.25;;;15.83;69.68
36222;BME280;22266;52.340;4.962;2023-05-31T09:26:46;102725.34;;;15.92;69.64
36222;BME280;22266;52.340;4.962;2023-05-31T09:29:14;102726.94;;;16.01;68.54
36222;BME280;22266;52.340;4.962;2023-05-31T09:31:41;102717.75;;;16.02;68.75
36222;BME280;22266;52.340;4.962;2023-05-31T09:34:25;102721.59;;;16.08;68.53
36222;BME280;22266;52.340;4.962;2023-05-31T09:36:57;102716.00;;;16.10;67.94
36222;BME280;22266;52.340;4.962;2023-05-31T09:39:23;102715.50;;;16.06;67.23
36222;BME280;22266;52.340;4.962;2023-05-31T09:41:50;102714.66;;;16.05;68.11
36222;BME280;22266;52.340;4.962;2023-05-31T09:44:17;102710.56;;;16.10;68.00
36222;BME280;22266;52.340;4.962;2023-05-31T09:46:45;102704.56;;;16.14;67.90
36222;BME280;22266;52.340;4.962;2023-05-31T09:49:13;102703.63;;;16.22;67.49
36222;BME280;22266;52.340;4.962;2023-05-31T09:51:49;102705.59;;;16.28;67.74
36222;BME280;22266;52.340;4.962;2023-05-31T09:54:18;102703.72;;;16.43;68.00
36222;BME280;22266;52.340;4.962;2023-05-31T09:56:50;102706.34;;;16.51;66.91
36222;BME280;22266;52.340;4.962;2023-05-31T09:59:16;102704.41;;;16.45;65.22
36222;BME280;22266;52.340;4.962;2023-05-31T10:01:43;102702.31;;;16.32;66.25
36222;BME280;22266;52.340;4.962;2023-05-31T10:04:11;102698.94;;;16.30;66.92
36222;BME280;22266;52.340;4.962;2023-05-31T10:06:38;102697.81;;;16.40;67.35
36222;BME280;22266;52.340;4.962;2023-05-31T10:09:06;102697.25;;;16.44;66.46
36222;BME280;22266;52.340;4.962;2023-05-31T10:11:35;102690.25;;;16.50;66.86
36222;BME280;22266;52.340;4.962;2023-05-31T10:14:07;102697.53;;;16.64;66.68
36222;BME280;22266;52.340;4.962;2023-05-31T10:16:44;102690.50;;;16.70;65.15
36222;BME280;22266;52.340;4.962;2023-05-31T10:19:13;102691.91;;;16.66;65.76
36222;BME280;22266;52.340;4.962;2023-05-31T10:21:43;102696.13;;;16.68;65.53
36222;BME280;22266;52.340;4.962;2023-05-31T10:24:28;102689.75;;;16.76;65.95
36222;BME280;22266;52.340;4.962;2023-05-31T10:27:28;102683.84;;;16.87;64.78
36222;BME280;22266;52.340;4.962;2023-05-31T10:29:56;102682.63;;;16.90;64.13
36222;BME280;22266;52.340;4.962;2023-05-31T10:32:34;102680.81;;;16.97;64.72
36222;BME280;22266;52.340;4.962;2023-05-31T10:35:04;102679.00;;;17.04;64.30
36222;BME280;22266;52.340;4.962;2023-05-31T10:37:31;102679.94;;;17.11;65.11
36222;BME280;22266;52.340;4.962;2023-05-31T10:40:10;102679.22;;;17.24;64.65
36222;BME280;22266;52.340;4.962;2023-05-31T10:43:14;102674.75;;;17.38;64.00
36222;BME280;22266;52.340;4.962;2023-05-31T10:45:55;102675.16;;;17.35;61.69
36222;BME280;22266;52.340;4.962;2023-05-31T10:48:45;102668.78;;;17.27;61.21
36222;BME280;22266;52.340;4.962;2023-05-31T10:51:15;102657.81;;;17.21;62.00
36222;BME280;22266;52.340;4.962;2023-05-31T10:53:44;102650.72;;;17.20;62.27
36222;BME280;22266;52.340;4.962;2023-05-31T10:56:15;102657.06;;;17.27;62.30
36222;BME280;22266;52.340;4.962;2023-05-31T10:58:49;102665.56;;;17.39;61.69
36222;BME280;22266;52.340;4.962;2023-05-31T11:01:18;102658.69;;;17.43;61.66
36222;BME280;22266;52.340;4.962;2023-05-31T11:03:49;102649.13;;;17.53;61.85
36222;BME280;22266;52.340;4.962;2023-05-31T11:06:22;102652.81;;;17.67;60.98
36222;BME280;22266;52.340;4.962;2023-05-31T11:09:10;102646.97;;;17.70;60.95
36222;BME280;22266;52.340;4.962;2023-05-31T11:19:20;102645.81;;;17.79;59.42
36222;BME280;22266;52.340;4.962;2023-05-31T11:21:55;102647.56;;;17.87;59.45
36222;BME280;22266;52.340;4.962;2023-05-31T11:27:05;102638.41;;;17.95;59.53
36222;BME280;22266;52.340;4.962;2023-05-31T11:32:11;102642.25;;;18.14;58.84
36222;BME280;22266;52.340;4.962;2023-05-31T11:37:17;102644.38;;;18.18;58.33
36222;BME280;22266;52.340;4.962;2023-05-31T11:39:44;102634.53;;;18.17;58.28
36222;BME280;22266;52.340;4.962;2023-05-31T11:42:11;102623.84;;;18.22;58.22
36222;BME280;22266;52.340;4.962;2023-05-31T11:44:42;102629.31;;;18.22;58.21
36222;BME280;22266;52.340;4.962;2023-05-31T11:47:10;102620.38;;;18.35;57.85
36222;BME280;22266;52.340;4.962;2023-05-31T11:49:37;102621.03;;;18.44;57.79
36222;BME280;22266;52.340;4.962;2023-05-31T11:52:04;102623.13;;;18.42;58.08
36222;BME280;22266;52.340;4.962;2023-05-31T11:54:32;102614.53;;;18.45;57.74
36222;BME280;22266;52.340;4.962;2023-05-31T11:57:01;102607.84;;;18.54;57.98
36222;BME280;22266;52.340;4.962;2023-05-31T11:59:33;102603.50;;;18.60;56.40
36222;BME280;22266;52.340;4.962;2023-05-31T12:02:01;102610.56;;;18.47;57.69
36222;BME280;22266;52.340;4.962;2023-05-31T12:04:29;102610.56;;;18.47;58.05
36222;BME280;22266;52.340;4.962;2023-05-31T12:06:56;102603.44;;;18.53;58.53
36222;BME280;22266;52.340;4.962;2023-05-31T12:09:24;102595.09;;;18.61;58.43
36222;BME280;22266;52.340;4.962;2023-05-31T12:11:51;102597.84;;;18.68;58.21
36222;BME280;22266;52.340;4.962;2023-05-31T12:14:18;102596.97;;;18.67;58.32
36222;BME280;22266;52.340;4.962;2023-05-31T12:16:46;102595.38;;;18.73;57.44
36222;BME280;22266;52.340;4.962;2023-05-31T12:19:15;102582.59;;;18.80;57.59
36222;BME280;22266;52.340;4.962;2023-05-31T12:21:43;102581.97;;;18.85;57.62
36222;BME280;22266;52.340;4.962;2023-05-31T12:24:17;102571.47;;;18.88;57.20
36222;BME280;22266;52.340;4.962;2023-05-31T12:26:44;102570.84;;;18.93;57.12
36222;BME280;22266;52.340;4.962;2023-05-31T12:29:11;102562.88;;;18.98;57.53
36222;BME280;22266;52.340;4.962;2023-05-31T12:31:39;102566.66;;;19.03;57.71
36222;BME280;22266;52.340;4.962;2023-05-31T12:34:16;102558.91;;;19.20;57.71
36222;BME280;22266;52.340;4.962;2023-05-31T12:36:49;102564.56;;;19.32;56.80
36222;BME280;22266;52.340;4.962;2023-05-31T12:39:23;102559.97;;;19.33;57.28
36222;BME280;22266;52.340;4.962;2023-05-31T12:41:53;102562.88;;;19.31;57.47
36222;BME280;22266;52.340;4.962;2023-05-31T12:44:21;102561.81;;;19.32;57.76
36222;BME280;22266;52.340;4.962;2023-05-31T12:46:49;102556.16;;;19.27;58.85
36222;BME280;22266;52.340;4.962;2023-05-31T12:49:30;102564.78;;;19.37;58.78
36222;BME280;22266;52.340;4.962;2023-05-31T12:52:05;102571.50;;;19.41;58.31
36222;BME280;22266;52.340;4.962;2023-05-31T12:54:34;102561.22;;;19.30;57.90
36222;BME280;22266;52.340;4.962;2023-05-31T12:57:03;102562.28;;;19.29;57.72
36222;BME280;22266;52.340;4.962;2023-05-31T12:59:31;102567.53;;;19.37;58.46
36222;BME280;22266;52.340;4.962;2023-05-31T13:01:58;102557.22;;;19.33;58.37
36222;BME280;22266;52.340;4.962;2023-05-31T13:04:25;102554.50;;;19.33;58.44
36222;BME280;22266;52.340;4.962;2023-05-31T13:06:53;102553.84;;;19.24;59.37
36222;BME280;22266;52.340;4.962;2023-05-31T13:09:20;102551.78;;;19.33;59.50
36222;BME280;22266;52.340;4.962;2023-05-31T13:11:46;102549.63;;;19.55;59.52
36222;BME280;22266;52.340;4.962;2023-05-31T13:14:16;102558.25;;;19.58;59.38
36222;BME280;22266;52.340;4.962;2023-05-31T13:16:47;102551.53;;;19.54;59.10
36222;BME280;22266;52.340;4.962;2023-05-31T13:19:14;102559.31;;;19.57;59.26
36222;BME280;22266;52.340;4.962;2023-05-31T13:21:40;102553.66;;;19.65;58.94
36222;BME280;22266;52.340;4.962;2023-05-31T13:24:08;102551.13;;;19.57;57.84